Time;durP1;ratioP1;P1;durP2;ratioP2;P2;SDS_P1;SDS_P2;PMS_P1;PMS_P2;Temp;Humidity;BMP_temperature;BMP_pressure;BME280_temperature;BME280_humidity;BME280_pressure;Samples;Min_cycle;Max_cycle;Signal;HPM_P1;HPM_P2
2021/12/10 00:00:24;;;;;;;17.63;7.40;;;4.00;99.90;;;;;;5056652;28;20041;-81
2021/12/10 00:02:51;;;;;;;16.30;7.25;;;3.90;99.90;;;;;;5054254;28;20033;-81
2021/12/10 00:05:22;;;;;;;18.53;6.83;;;3.90;99.90;;;;;;5057174;28;20028;-82
2021/12/10 00:07:49;;;;;;;14.73;7.20;;;3.90;99.90;;;;;;5055841;28;20021;-81
2021/12/10 00:10:21;;;;;;;11.47;5.53;;;3.90;99.90;;;;;;5046576;28;20052;-82
2021/12/10 00:12:51;;;;;;;17.40;6.38;;;3.90;99.90;;;;;;5056014;28;20444;-82
2021/12/10 00:15:27;;;;;;;13.37;7.23;;;3.90;99.90;;;;;;5058226;28;20468;-82
2021/12/10 00:17:54;;;;;;;15.73;6.93;;;3.90;99.90;;;;;;5055555;28;20040;-82
2021/12/10 00:20:24;;;;;;;11.50;5.73;;;3.90;99.90;;;;;;5039046;28;20425;-81
2021/12/10 00:22:57;;;;;;;14.63;6.80;;;3.90;99.90;;;;;;5058222;28;20029;-81
2021/12/10 00:25:39;;;;;;;15.40;6.13;;;3.90;99.90;;;;;;5055082;28;20025;-80
2021/12/10 00:28:18;;;;;;;10.95;5.53;;;4.00;99.90;;;;;;5056292;28;20035;-81
2021/12/10 00:31:15;;;;;;;11.73;5.10;;;4.00;99.90;;;;;;5057071;28;20504;-81
2021/12/10 00:33:46;;;;;;;14.40;5.30;;;4.00;99.90;;;;;;5053487;28;20245;-81
2021/12/10 00:36:12;;;;;;;15.63;5.13;;;3.90;99.90;;;;;;5057241;28;20025;-82
2021/12/10 00:38:39;;;;;;;16.17;4.87;;;3.90;99.90;;;;;;5053959;28;20029;-81
2021/12/10 00:41:07;;;;;;;10.90;4.80;;;3.90;99.90;;;;;;5055214;28;20051;-81
2021/12/10 00:43:33;;;;;;;16.67;4.73;;;3.80;99.80;;;;;;5056711;28;20542;-82
2021/12/10 00:45:59;;;;;;;10.07;4.43;;;3.80;99.80;;;;;;5052772;28;20465;-81
2021/12/10 00:48:25;;;;;;;10.10;3.70;;;3.80;99.80;;;;;;5019451;28;20041;-82
2021/12/10 00:50:55;;;;;;;9.30;4.03;;;3.80;99.70;;;;;;5055483;28;20493;-82
2021/12/10 00:53:22;;;;;;;8.93;3.90;;;3.80;99.80;;;;;;5055637;28;20374;-81
2021/12/10 00:55:48;;;;;;;12.17;3.97;;;3.80;99.70;;;;;;5054855;28;20032;-81
2021/12/10 00:58:14;;;;;;;8.50;3.40;;;3.80;99.60;;;;;;5054135;28;20029;-80
2021/12/10 01:00:47;;;;;;;11.47;3.53;;;3.70;99.60;;;;;;5038324;28;20033;-82
2021/12/10 01:03:18;;;;;;;12.43;3.63;;;3.70;99.60;;;;;;5052500;28;20033;-81
2021/12/10 01:05:48;;;;;;;10.33;3.57;;;3.70;99.50;;;;;;5053256;28;20032;-82
2021/12/10 01:08:13;;;;;;;10.30;3.33;;;3.70;99.50;;;;;;5056308;28;20477;-83
2021/12/10 01:10:48;;;;;;;11.43;3.30;;;3.70;99.50;;;;;;5037255;28;20036;-81
2021/12/10 01:13:18;;;;;;;8.10;3.93;;;3.70;99.50;;;;;;5056995;28;20025;-82
2021/12/10 01:27:25;;;;;;;15.07;7.30;;;3.60;99.50;;;;;;5042352;28;20055;-85
2021/12/10 01:29:56;;;;;;;15.70;6.53;;;3.60;99.50;;;;;;5055816;28;20060;-80
2021/12/10 01:32:24;;;;;;;10.30;5.73;;;3.60;99.50;;;;;;5027433;28;20041;-82
2021/12/10 01:34:50;;;;;;;12.93;5.90;;;3.50;99.50;;;;;;5059364;28;20025;-83
2021/12/10 01:37:16;;;;;;;15.03;5.07;;;3.50;99.50;;;;;;5059804;28;20124;-81
2021/12/10 01:39:42;;;;;;;10.67;5.17;;;3.50;99.60;;;;;;5056053;28;20024;-82
2021/12/10 01:44:56;;;;;;;12.77;4.17;;;3.50;99.50;;;;;;5066106;28;20481;-82
2021/12/10 01:47:29;;;;;;;13.33;4.63;;;3.50;99.40;;;;;;5062565;28;20029;-81
2021/12/10 01:49:55;;;;;;;;;;;3.50;99.40;;;;;;5060912;28;20422;-81
2021/12/10 01:52:21;;;;;;;15.03;3.33;;;3.40;99.40;;;;;;5058728;28;20277;-83
2021/12/10 01:54:50;;;;;;;12.13;3.33;;;3.40;99.40;;;;;;5072122;28;20036;-81
2021/12/10 01:57:19;;;;;;;9.67;3.27;;;3.40;99.50;;;;;;5072045;28;20021;-81
2021/12/10 01:59:47;;;;;;;7.57;2.97;;;3.40;99.50;;;;;;5070794;28;20029;-82
2021/12/10 02:02:30;;;;;;;8.30;3.37;;;3.40;99.50;;;;;;5063520;28;20041;-81
2021/12/10 02:04:56;;;;;;;9.48;3.00;;;3.40;99.50;;;;;;5058397;28;20044;-82
2021/12/10 02:07:25;;;;;;;12.53;3.03;;;3.30;99.40;;;;;;5032242;28;20037;-81
2021/12/10 02:09:52;;;;;;;11.87;3.40;;;3.40;99.40;;;;;;5055420;28;20028;-81
2021/12/10 02:12:19;;;;;;;10.43;3.20;;;3.30;99.30;;;;;;5054534;28;20053;-81
2021/12/10 02:14:57;;;;;;;8.00;2.70;;;3.40;99.40;;;;;;5056744;28;20052;-82
2021/12/10 02:17:25;;;;;;;8.20;2.77;;;3.30;99.40;;;;;;5057909;28;20037;-83
2021/12/10 02:19:51;;;;;;;8.93;2.87;;;3.30;99.40;;;;;;5056158;28;20029;-82
2021/12/10 02:22:16;;;;;;;7.97;2.23;;;3.30;99.40;;;;;;5050880;28;20067;-83
2021/12/10 02:24:42;;;;;;;8.17;2.37;;;3.30;99.30;;;;;;5019452;28;20029;-82
2021/12/10 02:27:08;;;;;;;8.80;2.73;;;3.30;99.30;;;;;;5053909;28;20366;-82
2021/12/10 02:29:38;;;;;;;8.40;2.43;;;3.30;99.30;;;;;;5039495;28;20068;-82
2021/12/10 02:32:09;;;;;;;10.80;2.53;;;3.20;99.20;;;;;;5058898;28;20028;-81
2021/12/10 02:34:35;;;;;;;9.80;2.20;;;3.30;99.20;;;;;;5053064;28;20108;-80
2021/12/10 02:37:02;;;;;;;12.20;2.40;;;3.30;99.20;;;;;;5052607;28;20021;-81
2021/12/10 02:39:28;;;;;;;8.63;2.10;;;3.20;99.10;;;;;;5037536;28;20087;-82
2021/12/10 02:41:55;;;;;;;8.20;1.80;;;3.20;99.20;;;;;;5058652;28;20037;-83
2021/12/10 02:44:26;;;;;;;8.93;2.33;;;3.20;99.20;;;;;;5058639;28;20037;-82
2021/12/10 02:46:53;;;;;;;9.87;1.87;;;3.10;99.20;;;;;;5055963;28;20486;-83
2021/12/10 02:49:19;;;;;;;9.13;2.07;;;3.10;99.20;;;;;;5058420;28;20021;-81
2021/12/10 02:51:45;;;;;;;9.43;2.10;;;3.10;99.30;;;;;;5044695;28;20486;-81
2021/12/10 02:54:20;;;;;;;9.17;2.10;;;3.10;99.30;;;;;;5043777;28;20159;-83
2021/12/10 02:56:46;;;;;;;5.93;1.80;;;3.10;99.30;;;;;;5062317;28;20029;-82
2021/12/10 02:59:12;;;;;;;10.63;2.00;;;3.10;99.30;;;;;;5042055;28;20041;-82
2021/12/10 03:01:44;;;;;;;11.40;3.07;;;3.10;99.30;;;;;;5055859;28;20064;-81
2021/12/10 03:04:10;;;;;;;8.25;1.80;;;3.10;99.20;;;;;;5054193;28;20020;-83
2021/12/10 03:06:49;;;;;;;8.53;1.87;;;3.00;99.20;;;;;;5058106;28;20108;-83
2021/12/10 03:09:17;;;;;;;6.33;2.30;;;3.00;99.30;;;;;;5050424;28;20025;-83
2021/12/10 03:11:46;;;;;;;12.67;2.47;;;3.00;99.30;;;;;;5052266;28;20037;-82
2021/12/10 03:14:14;;;;;;;7.43;2.47;;;3.00;99.30;;;;;;5054320;28;20093;-82
2021/12/10 03:16:42;;;;;;;8.47;2.60;;;3.00;99.30;;;;;;5056155;28;20412;-80
2021/12/10 03:19:08;;;;;;;6.20;2.17;;;3.00;99.40;;;;;;5036122;28;20033;-82
2021/12/10 03:21:41;;;;;;;11.47;3.00;;;2.90;99.30;;;;;;5037551;28;20028;-82
2021/12/10 03:24:08;;;;;;;11.20;3.47;;;3.00;99.40;;;;;;5039926;28;20045;-83
2021/12/10 03:26:34;;;;;;;6.53;2.37;;;3.00;99.40;;;;;;5057248;28;20091;-82
2021/12/10 03:29:00;;;;;;;13.73;2.40;;;3.00;99.40;;;;;;5055221;28;20045;-82
2021/12/10 03:31:26;;;;;;;9.73;2.57;;;2.90;99.40;;;;;;5056812;28;20032;-82
2021/12/10 03:33:55;;;;;;;11.37;2.33;;;3.00;99.40;;;;;;5021623;28;20029;-82
2021/12/10 03:36:22;;;;;;;10.23;1.90;;;3.00;99.30;;;;;;5051396;28;20029;-81
2021/12/10 03:38:48;;;;;;;6.10;1.70;;;3.00;99.30;;;;;;5053169;28;20040;-82
2021/12/10 03:41:15;;;;;;;7.83;1.57;;;3.00;99.30;;;;;;5055205;28;20545;-83
2021/12/10 03:43:42;;;;;;;9.33;1.60;;;3.10;99.20;;;;;;5055439;28;20029;-81
2021/12/10 03:46:08;;;;;;;11.87;1.87;;;3.10;99.20;;;;;;5057704;28;20051;-80
2021/12/10 03:48:41;;;;;;;13.83;1.83;;;3.10;99.10;;;;;;5043327;28;20486;-82
2021/12/10 03:51:12;;;;;;;15.82;1.95;;;3.10;99.10;;;;;;5059305;28;20075;-82
2021/12/10 03:53:38;;;;;;;9.00;1.50;;;3.10;99.10;;;;;;5041086;28;20026;-83
2021/12/10 03:56:10;;;;;;;13.63;1.40;;;3.10;99.10;;;;;;5049872;28;20259;-80
2021/12/10 03:58:36;;;;;;;8.20;1.80;;;3.10;99.20;;;;;;5058073;28;20418;-83
2021/12/10 04:01:04;;;;;;;11.97;1.53;;;3.10;99.00;;;;;;5057306;28;20021;-82
2021/12/10 04:03:32;;;;;;;10.27;1.50;;;3.10;99.00;;;;;;5055533;28;20058;-83
2021/12/10 04:05:59;;;;;;;7.30;1.20;;;3.20;99.00;;;;;;5055855;28;20058;-83
2021/12/10 04:08:25;;;;;;;11.57;1.20;;;3.20;98.90;;;;;;5054762;28;20142;-80
2021/12/10 04:10:52;;;;;;;10.57;1.50;;;3.20;98.90;;;;;;5055688;28;20060;-81
2021/12/10 04:13:19;;;;;;;7.67;1.10;;;3.20;98.90;;;;;;5046307;28;20122;-79
2021/12/10 04:15:45;;;;;;;8.70;1.00;;;3.20;98.80;;;;;;5067523;28;20501;-82
2021/12/10 04:18:12;;;;;;;6.40;1.27;;;3.20;98.70;;;;;;5022500;28;20033;-82
2021/12/10 04:20:38;;;;;;;6.73;0.90;;;3.20;98.80;;;;;;5049115;28;20033;-82
2021/12/10 04:23:08;;;;;;;10.40;1.40;;;3.20;98.70;;;;;;5052889;28;20366;-83
2021/12/10 04:25:34;;;;;;;5.00;0.87;;;3.20;98.80;;;;;;5052692;28;20029;-82
2021/12/10 04:28:03;;;;;;;11.00;1.60;;;3.20;98.80;;;;;;5052301;28;20036;-82
2021/12/10 04:30:35;;;;;;;8.13;1.20;;;3.20;98.80;;;;;;5054091;28;20497;-82
2021/12/10 04:33:03;;;;;;;9.80;1.02;;;3.20;98.80;;;;;;5053973;28;20028;-82
2021/12/10 04:35:29;;;;;;;6.07;0.80;;;3.20;98.80;;;;;;5052458;28;20028;-84
2021/12/10 04:37:55;;;;;;;9.57;1.10;;;3.20;98.70;;;;;;5054067;28;20108;-82
2021/12/10 04:40:22;;;;;;;5.97;0.80;;;3.20;98.70;;;;;;5053052;28;20060;-83
2021/12/10 04:42:49;;;;;;;7.17;1.00;;;3.30;98.60;;;;;;5052936;28;20037;-83
2021/12/10 04:45:18;;;;;;;12.03;1.40;;;3.30;98.60;;;;;;5052693;28;20056;-82
2021/12/10 04:47:45;;;;;;;10.97;0.70;;;3.40;98.60;;;;;;5050937;28;20040;-82
2021/12/10 04:50:12;;;;;;;10.57;1.03;;;3.40;98.70;;;;;;5054572;28;20021;-83
2021/12/10 04:52:38;;;;;;;11.27;0.97;;;3.40;98.60;;;;;;5057547;28;20036;-82
2021/12/10 04:55:07;;;;;;;7.47;1.27;;;3.40;98.50;;;;;;5043637;28;20048;-82
2021/12/10 04:57:33;;;;;;;9.60;1.00;;;3.40;98.50;;;;;;5058491;28;20045;-82
2021/12/10 04:59:58;;;;;;;9.63;0.97;;;3.40;98.50;;;;;;5039788;28;20040;-83
2021/12/10 05:02:25;;;;;;;8.53;0.97;;;3.50;98.50;;;;;;5037433;28;20072;-83
2021/12/10 05:04:56;;;;;;;6.70;0.90;;;3.50;98.40;;;;;;5038651;28;20037;-79
2021/12/10 05:07:23;;;;;;;5.67;0.77;;;3.60;98.20;;;;;;5047493;28;20036;-82
2021/12/10 05:09:49;;;;;;;8.43;0.90;;;3.60;98.10;;;;;;5043970;28;20059;-82
2021/12/10 05:12:14;;;;;;;9.40;0.70;;;3.70;98.10;;;;;;5039280;28;20056;-83
2021/12/10 05:14:41;;;;;;;11.43;0.90;;;3.70;97.90;;;;;;5045003;28;20033;-84
2021/12/10 05:17:08;;;;;;;7.97;0.70;;;3.70;97.80;;;;;;5062270;28;20021;-81
2021/12/10 05:19:37;;;;;;;6.80;0.60;;;3.80;97.70;;;;;;5059608;28;20068;-83
2021/12/10 05:22:05;;;;;;;11.30;0.87;;;3.80;97.60;;;;;;5061627;28;20151;-83
2021/12/10 05:24:31;;;;;;;7.10;0.63;;;3.80;97.80;;;;;;5062205;28;20028;-82
2021/12/10 05:26:58;;;;;;;9.37;0.87;;;3.80;98.00;;;;;;5058752;28;20393;-81
2021/12/10 05:29:24;;;;;;;9.13;0.83;;;3.80;98.20;;;;;;5059782;28;20040;-83
2021/12/10 05:31:51;;;;;;;9.60;1.00;;;3.70;98.50;;;;;;5062763;28;20021;-80
2021/12/10 05:34:18;;;;;;;11.43;1.10;;;3.70;98.80;;;;;;5062458;28;20100;-81
2021/12/10 05:36:44;;;;;;;13.00;1.00;;;3.70;99.00;;;;;;5061289;28;20055;-84
2021/12/10 05:39:12;;;;;;;13.33;1.20;;;3.60;99.40;;;;;;5056376;28;20032;-82
2021/12/10 05:41:38;;;;;;;12.43;1.07;;;3.60;99.40;;;;;;5053181;28;20109;-82
2021/12/10 05:44:07;;;;;;;8.60;1.03;;;3.60;99.70;;;;;;5058741;28;20025;-83
2021/12/10 05:46:34;;;;;;;14.07;1.10;;;3.50;99.90;;;;;;5058244;28;20081;-82
2021/12/10 05:49:00;;;;;;;14.13;0.90;;;3.50;99.90;;;;;;5041380;28;20032;-82
2021/12/10 05:51:27;;;;;;;9.50;1.30;;;3.50;99.90;;;;;;5059774;28;20056;-82
2021/12/10 05:53:52;;;;;;;9.47;0.87;;;3.60;99.80;;;;;;5043207;28;20033;-82
2021/12/10 05:56:18;;;;;;;9.23;1.07;;;3.60;99.90;;;;;;5054393;28;20143;-83
2021/12/10 05:58:45;;;;;;;13.63;1.10;;;3.60;99.80;;;;;;5041406;28;20049;-81
2021/12/10 06:01:14;;;;;;;12.00;0.80;;;3.60;99.70;;;;;;5033176;28;20029;-82
2021/12/10 06:03:50;;;;;;;9.70;0.90;;;3.60;99.50;;;;;;5057399;28;20021;-81
2021/12/10 06:06:16;;;;;;;11.50;0.87;;;3.70;99.30;;;;;;5056044;28;20028;-81
2021/12/10 06:08:42;;;;;;;7.00;0.90;;;3.70;99.20;;;;;;5054495;28;20035;-81
2021/12/10 06:11:08;;;;;;;13.07;1.00;;;3.80;99.20;;;;;;5054171;28;20061;-83
2021/12/10 06:13:34;;;;;;;10.80;1.00;;;3.80;99.00;;;;;;5038631;28;20040;-82
2021/12/10 06:16:00;;;;;;;8.80;1.13;;;3.80;98.70;;;;;;5020073;28;20131;-80
2021/12/10 06:18:26;;;;;;;9.80;0.73;;;3.80;98.50;;;;;;5039828;28;20025;-82
2021/12/10 06:20:53;;;;;;;10.03;0.97;;;3.90;98.50;;;;;;5038472;28;20028;-81
2021/12/10 06:23:20;;;;;;;7.90;0.93;;;3.90;98.30;;;;;;5052546;28;20033;-81
2021/12/10 06:25:46;;;;;;;12.63;1.37;;;3.90;98.10;;;;;;5039577;28;20029;-82
2021/12/10 06:28:12;;;;;;;11.87;1.23;;;4.00;98.10;;;;;;5039614;28;20060;-82
2021/12/10 06:30:41;;;;;;;7.93;0.70;;;4.00;97.70;;;;;;5039465;28;20068;-81
2021/12/10 06:33:11;;;;;;;9.30;0.70;;;4.00;97.20;;;;;;5057517;28;20033;-82
2021/12/10 06:35:39;;;;;;;7.67;0.60;;;4.00;97.10;;;;;;5050541;28;20041;-80
2021/12/10 06:38:06;;;;;;;8.37;0.93;;;4.10;97.00;;;;;;5031239;28;20335;-81
2021/12/10 06:40:34;;;;;;;8.27;0.93;;;4.10;97.20;;;;;;5044804;28;20080;-82
2021/12/10 06:43:01;;;;;;;10.03;0.90;;;4.10;97.00;;;;;;5050898;28;20040;-80
2021/12/10 06:45:29;;;;;;;8.83;0.83;;;4.10;97.00;;;;;;5048923;28;20147;-81
2021/12/10 06:47:58;;;;;;;9.10;0.77;;;4.10;96.90;;;;;;5051897;28;20028;-82
2021/12/10 06:50:28;;;;;;;9.23;0.70;;;4.10;96.60;;;;;;5050674;28;20396;-81
2021/12/10 06:52:54;;;;;;;8.97;0.87;;;4.20;96.80;;;;;;5034903;28;20040;-82
2021/12/10 06:55:21;;;;;;;9.00;0.77;;;4.20;96.20;;;;;;5047808;28;20187;-83
2021/12/10 06:57:47;;;;;;;6.90;0.90;;;4.20;95.90;;;;;;5049777;28;21296;-81
2021/12/10 07:00:18;;;;;;;11.17;0.73;;;4.20;95.90;;;;;;5051297;28;20531;-81
2021/12/10 07:02:46;;;;;;;7.20;0.80;;;4.20;95.90;;;;;;5052298;28;20040;-81
2021/12/10 07:05:12;;;;;;;11.73;1.30;;;4.20;95.90;;;;;;5033713;28;20037;-81
2021/12/10 07:07:39;;;;;;;10.20;1.03;;;4.20;96.10;;;;;;5048894;28;20047;-82
2021/12/10 07:10:08;;;;;;;9.90;1.23;;;4.20;96.10;;;;;;5033691;28;20028;-80
2021/12/10 07:12:38;;;;;;;13.00;1.40;;;4.20;95.90;;;;;;5051391;28;20036;-81
2021/12/10 07:15:09;;;;;;;10.50;1.40;;;4.20;95.90;;;;;;5048615;28;20124;-81
2021/12/10 07:17:37;;;;;;;11.03;1.60;;;4.20;96.20;;;;;;5050892;28;20112;-83
2021/12/10 07:20:04;;;;;;;12.40;1.70;;;4.10;96.20;;;;;;5035416;28;20107;-82
2021/12/10 07:22:29;;;;;;;9.90;1.53;;;4.20;96.40;;;;;;5050748;28;20070;-81
2021/12/10 07:24:55;;;;;;;9.73;1.70;;;4.20;96.30;;;;;;5034775;28;20037;-81
2021/12/10 07:27:21;;;;;;;12.67;2.10;;;4.20;96.40;;;;;;5032723;28;20124;-81
2021/12/10 07:29:47;;;;;;;12.67;2.53;;;4.20;96.50;;;;;;5052013;28;20363;-82
2021/12/10 07:32:13;;;;;;;13.93;2.90;;;4.20;96.20;;;;;;5033349;28;20029;-82
2021/12/10 07:34:40;;;;;;;11.93;2.80;;;4.20;96.10;;;;;;5051506;28;20029;-81
2021/12/10 07:37:08;;;;;;;10.47;2.77;;;4.20;96.30;;;;;;5049772;28;20053;-80
2021/12/10 07:39:35;;;;;;;12.90;3.10;;;4.20;96.20;;;;;;5030824;28;20049;-82
2021/12/10 07:42:01;;;;;;;12.77;3.20;;;4.20;96.00;;;;;;5030635;28;20505;-82
2021/12/10 07:44:27;;;;;;;13.13;3.10;;;4.10;95.90;;;;;;5014373;28;20049;-79
2021/12/10 07:46:55;;;;;;;12.90;3.63;;;4.10;96.00;;;;;;5015485;28;20036;-80
2021/12/10 07:49:28;;;;;;;12.27;2.87;;;4.10;95.90;;;;;;5051801;28;20025;-80
2021/12/10 07:51:54;;;;;;;;;;;4.20;96.10;;;;;;5033566;28;20032;-80
2021/12/10 07:54:21;;;;;;;12.63;3.43;;;4.20;95.70;;;;;;5054169;28;19909;-81
2021/12/10 07:56:47;;;;;;;10.20;3.00;;;4.20;95.80;;;;;;5020112;28;20040;-79
2021/12/10 07:59:12;;;;;;;13.13;3.20;;;4.20;95.70;;;;;;5060545;28;20060;-78
2021/12/10 08:01:38;;;;;;;13.20;3.10;;;4.20;95.60;;;;;;5068167;28;20041;-80
2021/12/10 08:04:06;;;;;;;14.17;3.23;;;4.20;95.30;;;;;;5063564;28;20067;-81
2021/12/10 08:06:33;;;;;;;10.50;3.17;;;4.20;95.60;;;;;;5054888;28;20132;-80
2021/12/10 08:09:00;;;;;;;13.70;4.37;;;4.30;95.60;;;;;;5033764;28;20454;-80
2021/12/10 08:11:26;;;;;;;13.97;3.00;;;4.20;95.40;;;;;;5048369;28;20067;-80
2021/12/10 08:13:52;;;;;;;16.17;3.17;;;4.30;95.50;;;;;;5049145;28;20037;-79
2021/12/10 08:16:18;;;;;;;8.70;2.73;;;4.30;95.40;;;;;;5049348;28;20033;-80
2021/12/10 08:18:45;;;;;;;16.17;3.40;;;4.30;95.20;;;;;;5050161;28;20025;-80
2021/12/10 08:21:11;;;;;;;12.93;2.80;;;4.30;95.30;;;;;;5050260;28;20029;-80
2021/12/10 08:23:38;;;;;;;7.17;2.60;;;4.30;94.90;;;;;;5050110;28;20032;-79
2021/12/10 08:26:05;;;;;;;11.17;2.70;;;4.30;95.00;;;;;;5051744;28;20511;-81
2021/12/10 08:28:32;;;;;;;13.17;2.97;;;4.30;95.10;;;;;;5032601;28;20612;-79
2021/12/10 08:30:59;;;;;;;14.73;2.97;;;4.30;94.90;;;;;;5043069;28;20067;-82
2021/12/10 08:33:26;;;;;;;12.13;2.80;;;4.30;95.20;;;;;;5043065;28;20094;-81
2021/12/10 08:35:58;;;;;;;12.77;2.43;;;4.40;94.90;;;;;;5050202;28;20028;-80
2021/12/10 08:38:25;;;;;;;14.25;2.10;;;4.40;94.70;;;;;;5047475;28;20029;-80
2021/12/10 08:40:58;;;;;;;9.37;2.10;;;4.50;94.30;;;;;;5048967;28;20103;-82
2021/12/10 08:43:25;;;;;;;12.68;3.45;;;4.50;94.40;;;;;;5035705;28;20049;-82
2021/12/10 08:45:52;;;;;;;11.47;2.23;;;4.50;94.50;;;;;;5050536;28;20491;-83
2021/12/10 08:48:23;;;;;;;13.40;2.70;;;4.50;94.30;;;;;;5049599;28;20040;-82
2021/12/10 08:50:49;;;;;;;15.77;2.23;;;4.50;94.50;;;;;;5051342;28;20039;-82
2021/12/10 08:53:15;;;;;;;11.73;2.57;;;4.50;94.20;;;;;;5053078;28;20033;-80
2021/12/10 08:55:48;;;;;;;8.97;1.23;;;4.50;94.10;;;;;;5056452;28;20059;-83
2021/12/10 08:58:15;;;;;;;13.43;1.85;;;4.50;94.10;;;;;;5046405;28;20036;-84
2021/12/10 09:00:47;;;;;;;11.00;1.77;;;4.60;94.50;;;;;;5053764;28;20029;-84
2021/12/10 09:03:13;;;;;;;9.77;1.80;;;4.50;94.50;;;;;;5055289;28;20039;-85
2021/12/10 09:05:39;;;;;;;7.30;1.30;;;4.50;94.50;;;;;;5049392;28;20087;-84
2021/12/10 09:08:05;;;;;;;22.87;6.83;;;4.50;94.50;;;;;;5044759;28;20030;-83
2021/12/10 09:10:36;;;;;;;11.63;3.33;;;4.50;94.60;;;;;;5046992;28;20028;-80
2021/12/10 09:13:04;;;;;;;11.70;2.50;;;4.50;95.70;;;;;;5055327;28;20064;-87
2021/12/10 09:15:32;;;;;;;14.60;4.27;;;4.70;95.50;;;;;;5042816;28;20062;-84
2021/12/10 09:17:59;;;;;;;8.77;1.87;;;4.70;94.90;;;;;;5066992;28;20048;-85
2021/12/10 09:20:32;;;;;;;10.73;2.50;;;4.70;95.00;;;;;;5055662;28;20028;-82
2021/12/10 09:22:59;;;;;;;7.97;2.23;;;4.70;95.00;;;;;;5056587;28;20139;-85
2021/12/10 09:25:25;;;;;;;14.27;2.97;;;4.80;95.10;;;;;;5050760;28;20028;-83
2021/12/10 09:27:51;;;;;;;10.17;1.13;;;4.80;94.90;;;;;;5050655;28;20412;-82
2021/12/10 09:30:19;;;;;;;11.70;1.50;;;4.80;95.00;;;;;;5055101;28;20135;-84
2021/12/10 09:32:45;;;;;;;5.93;1.43;;;4.70;94.60;;;;;;5056595;28;20163;-83
2021/12/10 09:35:13;;;;;;;14.90;2.33;;;4.70;95.00;;;;;;5039578;28;20071;-82
2021/12/10 09:37:40;;;;;;;14.83;3.27;;;4.60;94.90;;;;;;5051503;28;20033;-82
2021/12/10 09:40:10;;;;;;;11.27;2.00;;;4.70;95.50;;;;;;5034962;28;20444;-84
2021/12/10 09:42:36;;;;;;;9.03;1.30;;;4.70;94.80;;;;;;5051850;28;20036;-85
2021/12/10 09:45:04;;;;;;;10.90;1.27;;;4.60;94.40;;;;;;5037311;28;20469;-83
2021/12/10 09:47:29;;;;;;;13.37;1.03;;;4.60;94.20;;;;;;5052103;28;20033;-83
2021/12/10 09:49:56;;;;;;;7.63;1.17;;;4.60;94.30;;;;;;5036682;28;20527;-81
2021/12/10 09:52:25;;;;;;;8.40;1.50;;;4.60;94.20;;;;;;5042717;28;20090;-79
2021/12/10 09:54:51;;;;;;;9.03;0.87;;;4.70;93.80;;;;;;5053570;28;20033;-81
2021/12/10 09:57:29;;;;;;;7.70;0.90;;;4.70;93.50;;;;;;5049208;28;20042;-81
2021/12/10 09:59:56;;;;;;;7.93;1.20;;;4.70;93.30;;;;;;5048617;28;20017;-82
2021/12/10 10:02:23;;;;;;;6.63;0.90;;;4.80;93.20;;;;;;5052599;28;20037;-79
2021/12/10 10:04:51;;;;;;;9.93;1.00;;;4.80;92.80;;;;;;5052251;28;20037;-81
2021/12/10 10:07:26;;;;;;;7.90;1.00;;;4.80;92.80;;;;;;5052485;28;20087;-79
2021/12/10 10:10:03;;;;;;;10.27;1.03;;;4.90;92.40;;;;;;5050994;28;20455;-79
2021/12/10 10:12:32;;;;;;;10.87;0.90;;;4.90;92.60;;;;;;5052200;28;20036;-80
2021/12/10 10:14:59;;;;;;;10.60;1.27;;;5.00;92.10;;;;;;5052498;28;20025;-80
2021/12/10 10:17:26;;;;;;;15.13;1.33;;;5.00;92.20;;;;;;5052655;28;20032;-80
2021/12/10 10:19:53;;;;;;;9.27;1.40;;;5.10;92.00;;;;;;5049624;28;20036;-82
2021/12/10 10:22:24;;;;;;;10.20;1.43;;;5.10;91.90;;;;;;5051261;28;20447;-83
2021/12/10 10:24:51;;;;;;;12.20;2.53;;;5.10;91.40;;;;;;5052744;28;20036;-83
2021/12/10 10:27:27;;;;;;;5.40;1.00;;;5.10;91.50;;;;;;5035343;28;20040;-85
2021/12/10 10:30:13;;;;;;;14.43;2.60;;;5.10;91.00;;;;;;5051654;28;20052;-85
2021/12/10 10:32:45;;;;;;;8.10;1.57;;;5.00;91.40;;;;;;5040783;28;20056;-84
2021/12/10 10:35:34;;;;;;;10.53;1.10;;;5.10;91.20;;;;;;5048627;28;20088;-82
2021/12/10 10:38:01;;;;;;;10.60;1.50;;;5.10;91.00;;;;;;5055647;28;20035;-82
2021/12/10 10:40:34;;;;;;;9.83;1.17;;;5.10;91.20;;;;;;5047099;28;20433;-80
2021/12/10 10:43:01;;;;;;;12.77;2.17;;;5.10;91.40;;;;;;5061319;28;20037;-86
2021/12/10 10:45:31;;;;;;;8.90;1.40;;;5.20;91.20;;;;;;5039756;28;20108;-80
2021/12/10 10:47:57;;;;;;;9.90;1.23;;;5.20;90.50;;;;;;5044997;28;20025;-86
2021/12/10 10:50:35;;;;;;;14.00;2.37;;;5.20;90.10;;;;;;5041540;28;20513;-83
2021/12/10 10:53:11;;;;;;;9.73;1.77;;;5.30;90.90;;;;;;5044151;28;20033;-81
2021/12/10 10:55:42;;;;;;;9.23;1.03;;;5.40;90.60;;;;;;5036126;28;20024;-84
2021/12/10 10:58:11;;;;;;;14.63;2.37;;;5.40;90.10;;;;;;5052579;28;20017;-83
2021/12/10 11:00:59;;;;;;;8.60;1.10;;;5.40;89.90;;;;;;5047072;28;20017;-84
2021/12/10 11:03:36;;;;;;;7.80;0.90;;;5.40;88.60;;;;;;5049622;28;20029;-84
2021/12/10 11:06:02;;;;;;;8.17;1.37;;;5.30;88.10;;;;;;5051761;28;20025;-82
2021/12/10 11:08:29;;;;;;;11.80;1.40;;;5.40;88.20;;;;;;5054217;28;20033;-85
2021/12/10 11:11:06;;;;;;;8.87;1.50;;;5.40;88.20;;;;;;5043710;28;20033;-84
2021/12/10 11:13:31;;;;;;;10.97;1.63;;;5.40;88.30;;;;;;5041837;28;20057;-81
2021/12/10 11:16:03;;;;;;;8.43;0.73;;;5.40;87.80;;;;;;5052442;28;20067;-84
2021/12/10 11:18:47;;;;;;;9.77;1.67;;;5.50;87.30;;;;;;5043623;28;20025;-84
2021/12/10 11:21:15;;;;;;;8.53;1.30;;;5.50;87.50;;;;;;5053831;28;20025;-84
2021/12/10 11:23:42;;;;;;;6.57;0.90;;;5.50;87.50;;;;;;5049926;28;20039;-81
2021/12/10 11:26:09;;;;;;;6.77;1.33;;;5.60;87.00;;;;;;5051514;28;20041;-85
2021/12/10 11:28:38;;;;;;;6.80;0.93;;;5.50;87.00;;;;;;5030880;28;20366;-85
2021/12/10 11:31:11;;;;;;;9.20;1.93;;;5.50;86.60;;;;;;5052481;28;20025;-86
2021/12/10 11:33:43;;;;;;;7.57;1.17;;;5.50;87.20;;;;;;5051800;28;20017;-86
2021/12/10 11:36:14;;;;;;;8.13;0.85;;;5.50;86.60;;;;;;5051244;28;20029;-83
2021/12/10 11:38:44;;;;;;;6.80;1.10;;;5.40;87.00;;;;;;5051823;28;20072;-85
2021/12/10 11:41:21;;;;;;;7.90;1.57;;;5.40;87.40;;;;;;5019627;28;20075;-83
2021/12/10 11:44:07;;;;;;;8.73;1.00;;;5.30;88.80;;;;;;5050652;28;20112;-86
2021/12/10 11:46:51;;;;;;;7.37;0.90;;;5.10;90.10;;;;;;5050291;28;20057;-80
2021/12/10 11:49:27;;;;;;;7.00;1.97;;;5.00;91.40;;;;;;5051278;28;20377;-85
2021/12/10 11:52:06;;;;;;;8.93;1.10;;;5.00;92.80;;;;;;5050905;28;20812;-82
2021/12/10 11:54:37;;;;;;;8.43;1.70;;;4.90;93.60;;;;;;5050182;28;20033;-82
2021/12/10 11:57:18;;;;;;;8.23;1.70;;;4.80;94.70;;;;;;5052140;28;20029;-81
2021/12/10 11:59:48;;;;;;;5.73;1.27;;;4.80;95.30;;;;;;5051412;28;20025;-82
2021/12/10 12:02:26;;;;;;;13.13;2.57;;;4.70;95.40;;;;;;5052614;28;20025;-82
2021/12/10 12:04:55;;;;;;;7.80;2.00;;;4.70;95.90;;;;;;5050882;28;20040;-84
2021/12/10 12:07:38;;;;;;;9.53;2.53;;;4.60;95.70;;;;;;5050808;28;20039;-82
2021/12/10 12:10:20;;;;;;;9.73;2.38;;;4.60;96.20;;;;;;5031651;28;20079;-82
2021/12/10 12:13:10;;;;;;;10.47;1.60;;;4.60;96.20;;;;;;5033043;28;20021;-83
2021/12/10 12:15:43;;;;;;;10.33;1.40;;;4.70;96.50;;;;;;5058789;28;20298;-78
2021/12/10 12:18:12;;;;;;;10.88;2.05;;;4.70;95.60;;;;;;5063033;28;20037;-80
2021/12/10 12:20:47;;;;;;;10.20;1.63;;;4.60;95.90;;;;;;5065880;28;20025;-80
2021/12/10 12:26:21;;;;;;;5.87;1.50;;;4.50;96.40;;;;;;5061850;28;20079;-81
2021/12/10 12:28:57;;;;;;;6.37;1.93;;;4.30;97.50;;;;;;5058274;28;20097;-81
2021/12/10 12:31:29;;;;;;;7.20;1.30;;;4.30;97.80;;;;;;5056074;28;20064;-81
2021/12/10 12:34:09;;;;;;;5.07;0.80;;;4.30;97.80;;;;;;5054400;28;20025;-80
2021/12/10 12:36:40;;;;;;;7.93;1.40;;;4.30;97.20;;;;;;5053508;28;20078;-79
2021/12/10 12:39:13;;;;;;;6.47;1.13;;;4.30;97.30;;;;;;5054099;28;20035;-80
2021/12/10 12:41:40;;;;;;;;;;;4.30;97.40;;;;;;5054140;28;20044;-78
2021/12/10 12:44:11;;;;;;;6.50;1.30;;;4.30;97.50;;;;;;5052925;28;19991;-81
2021/12/10 12:47:08;;;;;;;9.17;1.90;;;4.40;97.60;;;;;;5053556;28;20025;-80
2021/12/10 12:49:58;;;;;;;7.60;1.83;;;4.40;97.40;;;;;;5053291;28;20169;-81
2021/12/10 12:52:36;;;;;;;9.93;1.63;;;4.40;97.30;;;;;;5054157;28;20477;-80
2021/12/10 12:55:32;;;;;;;6.17;1.40;;;4.40;97.40;;;;;;5053849;28;20098;-80
2021/12/10 12:58:39;;;;;;;7.83;1.27;;;4.40;97.20;;;;;;5054326;28;20020;-80
2021/12/10 13:01:24;;;;;;;11.60;1.60;;;4.30;97.40;;;;;;5046587;28;20033;-79
2021/12/10 13:04:07;;;;;;;9.57;2.10;;;4.30;97.40;;;;;;5052700;28;20079;-80
2021/12/10 13:06:56;;;;;;;8.38;2.10;;;4.30;97.90;;;;;;5053697;28;20541;-80
2021/12/10 13:09:30;;;;;;;6.53;1.43;;;4.30;98.00;;;;;;5055459;28;20032;-80
2021/12/10 13:12:09;;;;;;;6.00;1.73;;;4.20;97.90;;;;;;5064796;28;20029;-79
2021/12/10 13:14:52;;;;;;;9.30;2.67;;;4.10;98.30;;;;;;5059438;28;20036;-80
2021/12/10 13:17:23;;;;;;;;;;;4.10;98.70;;;;;;5058153;28;20027;-81
2021/12/10 13:19:49;;;;;;;6.80;1.70;;;4.10;98.90;;;;;;5057725;28;19948;-79
2021/12/10 13:22:23;;;;;;;10.20;2.47;;;4.00;98.90;;;;;;5040251;28;20124;-80